Nearby METAR Reports

 

KNUQ - Moffett Nas/Mtn, California, USA
Distance from station: N 9mi, 14km
Updated: Wed, 19-Sep-2018 5:56pm PDT
Clear
Clear
 Wind from N
Wind: N 14 mph , 22 km/h
Temperature: 72°F , 22°C
Dew Point: 55°F , 13°C
Humidity: 57%
Barometer: 29.83 inHg , 1010.2 hPa
Clouds: Clear
Visibility: 10 miles , 16 km
2018/09/20 00:56 KNUQ 200056Z 35012KT 10SM CLR 22/13 A2983 RMK AO2 SLP103 T02170133 $
KSJC - San Jose, California, USA
Distance from station: NE 9mi, 14km
Updated: Wed, 19-Sep-2018 5:53pm PDT
Clear
Clear
 Wind from NNW
Wind: NNW 13 mph , 20 km/h
Temperature: 75°F , 24°C
Dew Point: 54°F , 12°C
Humidity: 47%
Barometer: 29.82 inHg , 1009.8 hPa
Clouds: Clear
Visibility: 10 miles , 16 km
2018/09/20 00:53 KSJC 200053Z 34011KT 10SM CLR 24/12 A2982 RMK AO2 SLP096 T02440117
 
KRHV - San Jose/Reid, California, USA
Distance from station: ENE 12mi, 19km
Updated: Wed, 19-Sep-2018 5:47pm PDT
Clear
Clear
 Wind from NNW
Wind: NNW 6 mph , 9 km/h
Temperature: 79°F , 26°C
Dew Point: 52°F , 11°C
Humidity: 39%
Barometer: 29.80 inHg , 1009.1 hPa
Clouds: Clear
Visibility: 10 miles , 16 km
2018/09/20 00:47 KRHV 200047Z 33005KT 10SM SKC 26/11 A2980
KPAO - Palo Alto, California, USA
Distance from station: NNW 14mi, 23km
Updated: Wed, 19-Sep-2018 5:47pm PDT
Clear
Clear
 Wind from NNW
Wind: NNW 16 mph , 26 km/h
Temperature: 72°F , 22°C
Dew Point: 59°F , 15°C
Humidity: 65%
Barometer: 29.82 inHg , 1009.8 hPa
Clouds: Clear
Visibility: 10 miles , 16 km
2018/09/20 00:47 KPAO 200047Z 34014KT 10SM SKC 22/15 A2982
 
KSQL - San Carlos Airpo, California, USA
Distance from station: NW 21mi, 34km
Updated: Wed, 19-Sep-2018 7:00am PDT
NOT Current
Clear
Clear
 Wind from calm
Wind: Calm
Temperature: 54°F , 12°C
Dew Point: 48°F , 9°C
Humidity: 82%
Barometer: 29.91 inHg , 1012.9 hPa
Clouds: Clear
Visibility: 10 miles , 16 km
2018/09/19 14:00 KSQL 191400Z AUTO 00000KT 10SM CLR 12/09 A2991 RMK AO2
KWVI - Watsonville, California, USA
Distance from station: SSE 27mi, 44km
Updated: Wed, 19-Sep-2018 5:53pm PDT
Clear
Clear
 Wind from S
Wind: S 7 mph , 11 km/h
Temperature: 63°F , 17°C
Dew Point: 54°F , 12°C
Humidity: 73%
Barometer: 29.83 inHg , 1010.2 hPa
Clouds: Clear
Visibility: 10 miles , 16 km
2018/09/20 00:53 KWVI 200053Z AUTO 19006KT 10SM CLR 17/12 A2983 RMK AO2 SLP101 T01720117
 
KHWD - Hayward, California, USA
Distance from station: N 28mi, 44km
Updated: Wed, 19-Sep-2018 5:54pm PDT
Clear
Clear
 Wind from WNW
Wind: WNW 12 mph , 19 km/h
Temperature: 73°F , 23°C
Dew Point: 52°F , 11°C
Humidity: 47%
Barometer: 29.82 inHg , 1009.8 hPa
Clouds: Clear
Visibility: 10 miles , 16 km
2018/09/20 00:54 KHWD 200054Z 29010KT 10SM CLR 23/11 A2982 RMK AO2 SLP108 T02280106
KSFO - San Francisco, California, USA
Distance from station: NW 30mi, 49km
Updated: Wed, 19-Sep-2018 5:56pm PDT
Clear
Clear
 Wind from WNW
Wind: WNW 18 mph , 30 km/h
Temperature: 66°F , 19°C
Dew Point: 48°F , 9°C
Humidity: 52%
Barometer: 29.82 inHg , 1009.8 hPa
Clouds: Clear
Visibility: 10 miles , 16 km
2018/09/20 00:56 KSFO 200056Z 29016KT 10SM CLR 19/09 A2982 RMK AO2 SLP099 T01940089
 
KHAF - Half Moon Bay, California, USA
Distance from station: WNW 31mi, 50km
Updated: Wed, 19-Sep-2018 6:35pm PDT
Haze, Clear
Haze, Clear
 Wind from NW
Wind: NW 12 mph , 19 km/h
Temperature: 57°F , 14°C
Dew Point: 52°F , 11°C
Humidity: 82%
Barometer: 29.86 inHg , 1011.2 hPa
Summary: Haze
Clouds: Clear
Visibility: 5 miles , 8 km
2018/09/20 01:35 KHAF 200135Z AUTO 32010KT 5SM HZ CLR 14/11 A2986 RMK AO2
KOAK - Oakland, California, USA
Distance from station: NNW 31mi, 50km
Updated: Wed, 19-Sep-2018 5:53pm PDT
Clear
Clear
 Wind from WNW
Wind: WNW 10 mph , 17 km/h
Temperature: 70°F , 21°C
Dew Point: 54°F , 12°C
Humidity: 57%
Barometer: 29.83 inHg , 1010.2 hPa
Clouds: Clear
Visibility: 10 miles , 16 km
2018/09/20 00:53 KOAK 200053Z 29009KT 10SM CLR 21/12 A2983 RMK AO2 SLP102 T02060122
 
KLVK - Livermore, California, USA
Distance from station: NNE 31mi, 51km
Updated: Wed, 19-Sep-2018 5:53pm PDT
Clear
Clear
 Wind from W
Wind: W 13 mph , 20 km/h
Temperature: 81°F , 27°C
Dew Point: 50°F , 10°C
Humidity: 34%
Barometer: 29.80 inHg , 1009.1 hPa
Clouds: Clear
Visibility: 10 miles , 16 km
2018/09/20 00:53 KLVK 200053Z AUTO 27011KT 10SM CLR 27/10 A2980 RMK AO2 SLP088 T02720100
KCVH - Hollister Muni, California, USA
Distance from station: SE 42mi, 68km
Updated: Wed, 19-Sep-2018 6:35pm PDT
Clear
Clear
 Wind from SW
Wind: SW 6 mph , 9 km/h
Temperature: 73°F , 23°C
Dew Point: 50°F , 10°C
Humidity: 44%
Barometer: 29.81 inHg , 1009.5 hPa
Clouds: Clear
Visibility: 10 miles , 16 km
2018/09/20 01:35 KCVH 200135Z AUTO 23005KT 10SM CLR 23/10 A2981 RMK A01
 
KSNS - Salinas, California, USA
Distance from station: SSE 48mi, 77km
Updated: Wed, 19-Sep-2018 5:53pm PDT
Clear
Clear
 Wind from WNW
Wind: WNW 9 mph , 15 km/h
Temperature: 64°F , 18°C
Dew Point: 52°F , 11°C
Humidity: 64%
Barometer: 29.83 inHg , 1010.2 hPa
Clouds: Clear
Visibility: 7 miles , 11 km
2018/09/20 00:53 KSNS 200053Z 30008KT 7SM CLR 18/11 A2983 RMK AO2 SLP110 T01830111
KMRY - Monterey, California, USA
Distance from station: SSE 49mi, 78km
Updated: Wed, 19-Sep-2018 5:54pm PDT
Clear
Clear
 Wind from SW
Wind: SW 7 mph , 11 km/h
Temperature: 64°F , 18°C
Dew Point: 50°F , 10°C
Humidity: 60%
Barometer: 29.85 inHg , 1010.8 hPa
Clouds: Clear
Visibility: 10 miles , 16 km
2018/09/20 00:54 KMRY 200054Z 23006KT 10SM CLR 18/10 A2985 RMK AO2 SLP121 T01780100
 
KCCR - Concord, California, USA
Distance from station: N 50mi, 81km
Updated: Wed, 19-Sep-2018 5:53pm PDT
Clear
Clear
 Wind from WNW
Wind: WNW 9 mph , 15 km/h
Temperature: 86°F , 30°C
Dew Point: 46°F , 8°C
Humidity: 25%
Barometer: 29.79 inHg , 1008.8 hPa
Clouds: Clear
Visibility: 10 miles , 16 km
2018/09/20 00:53 KCCR 200053Z 29008KT 10SM CLR 30/08 A2979 RMK AO2 SLP076 T03000078

Metar display script from Saratoga-Weather.org